Time;durP1;ratioP1;P1;durP2;ratioP2;P2;SDS_P1;SDS_P2;PMS_P1;PMS_P2;Temp;Humidity;BMP_temperature;BMP_pressure;BME280_temperature;BME280_humidity;BME280_pressure;Samples;Min_cycle;Max_cycle;Signal;HPM_P1;HPM_P2
2024/02/11 00:01:36;;;;;;;12.57;9.05;;;18.10;99.90;;;;;;10496369;28;20143;-60
2024/02/11 00:06:38;;;;;;;7.03;4.78;;;18.20;99.90;;;;;;10496519;28;20920;-62
2024/02/11 00:11:40;;;;;;;8.73;6.15;;;18.20;99.90;;;;;;10495133;28;20076;-61
2024/02/11 00:16:45;;;;;;;11.25;8.57;;;18.20;99.90;;;;;;10496965;28;20048;-62
2024/02/11 00:21:47;;;;;;;10.38;6.63;;;18.20;99.90;;;;;;10494269;28;20055;-61
2024/02/11 00:26:49;;;;;;;7.05;5.80;;;18.10;99.90;;;;;;10487283;28;20044;-61
2024/02/11 00:31:53;;;;;;;12.77;9.93;;;18.10;99.90;;;;;;10500821;28;20044;-60
2024/02/11 00:36:55;;;;;;;12.82;10.43;;;18.20;99.90;;;;;;10503326;28;20084;-61
2024/02/11 00:41:58;;;;;;;8.73;5.85;;;18.10;99.90;;;;;;10505466;28;20987;-59
2024/02/11 00:47:02;;;;;;;10.75;6.32;;;18.10;99.90;;;;;;10507310;28;21088;-60
2024/02/11 00:52:05;;;;;;;6.88;5.95;;;18.20;99.90;;;;;;10507005;28;20824;-61
2024/02/11 00:57:07;;;;;;;8.43;6.95;;;18.00;99.90;;;;;;10508789;28;20048;-61
2024/02/11 01:02:11;;;;;;;10.15;8.00;;;18.00;99.90;;;;;;10509110;28;20652;-60
2024/02/11 01:07:13;;;;;;;10.80;7.97;;;18.00;99.90;;;;;;10502108;28;20055;-61
2024/02/11 01:12:17;;;;;;;8.82;6.03;;;17.90;99.90;;;;;;10499459;28;20052;-62
2024/02/11 01:17:23;;;;;;;12.55;8.40;;;17.90;99.90;;;;;;10500065;28;20056;-62
2024/02/11 01:22:28;;;;;;;17.67;12.15;;;18.00;99.90;;;;;;10502082;28;20135;-61
2024/02/11 01:27:30;;;;;;;13.43;10.25;;;18.00;99.90;;;;;;10502013;28;20109;-60
2024/02/11 01:32:34;;;;;;;15.90;10.35;;;17.90;99.90;;;;;;10502600;28;20051;-61
2024/02/11 01:37:40;;;;;;;10.93;9.15;;;17.90;99.90;;;;;;10500265;28;20040;-61
2024/02/11 01:42:46;;;;;;;10.20;7.50;;;17.80;99.90;;;;;;10498396;28;20079;-61
2024/02/11 01:47:49;;;;;;;12.23;9.85;;;17.90;99.90;;;;;;10497601;28;20985;-60
2024/02/11 01:52:56;;;;;;;11.00;9.00;;;18.00;99.90;;;;;;10500072;28;20779;-60
2024/02/11 01:57:59;;;;;;;11.27;7.82;;;18.00;99.90;;;;;;10501935;28;20051;-61
2024/02/11 02:03:04;;;;;;;15.05;12.02;;;17.90;99.90;;;;;;10501313;28;20052;-61
2024/02/11 02:08:08;;;;;;;6.50;5.18;;;17.90;99.90;;;;;;10501602;28;20051;-60
2024/02/11 02:13:11;;;;;;;13.90;10.32;;;17.90;99.90;;;;;;10500162;28;20063;-60
2024/02/11 02:18:14;;;;;;;11.10;8.27;;;17.80;99.90;;;;;;10497400;28;20078;-59
2024/02/11 02:23:17;;;;;;;12.25;9.90;;;17.80;99.90;;;;;;10500329;28;20058;-61
2024/02/11 02:28:20;;;;;;;16.77;12.25;;;17.80;99.90;;;;;;10506424;28;20139;-61
2024/02/11 02:33:22;;;;;;;9.15;7.95;;;17.80;99.90;;;;;;10503182;28;20192;-60
2024/02/11 02:38:26;;;;;;;12.95;10.55;;;17.80;99.90;;;;;;10503791;28;20050;-60
2024/02/11 02:43:28;;;;;;;10.15;7.20;;;17.70;99.90;;;;;;10503692;28;20120;-60
2024/02/11 02:48:31;;;;;;;8.38;6.05;;;17.70;99.90;;;;;;10505307;28;20059;-61
2024/02/11 02:53:34;;;;;;;;;;;17.70;99.90;;;;;;10500830;28;20515;-61
2024/02/11 02:58:36;;;;;;;12.55;8.70;;;17.70;99.90;;;;;;10502357;28;20390;-60
2024/02/11 03:03:38;;;;;;;11.13;7.57;;;17.60;99.90;;;;;;10502449;28;20067;-60
2024/02/11 03:08:42;;;;;;;12.40;10.07;;;17.50;99.90;;;;;;10501277;28;20105;-61
2024/02/11 03:13:44;;;;;;;9.93;7.55;;;17.60;99.90;;;;;;10499499;28;20955;-60
2024/02/11 03:18:47;;;;;;;8.45;5.78;;;17.60;99.90;;;;;;10501181;28;20052;-60
2024/02/11 03:23:50;;;;;;;11.70;8.95;;;17.60;99.90;;;;;;10499252;28;20044;-61
2024/02/11 03:28:52;;;;;;;10.82;7.22;;;17.50;99.90;;;;;;10501012;28;20155;-61
2024/02/11 03:33:54;;;;;;;9.07;6.95;;;17.60;99.90;;;;;;10504369;28;20056;-61
2024/02/11 03:38:58;;;;;;;8.70;6.35;;;17.70;99.90;;;;;;10499636;28;20143;-61
2024/02/11 03:44:00;;;;;;;8.73;5.60;;;17.60;99.90;;;;;;10502485;28;20044;-60
2024/02/11 03:49:02;;;;;;;9.52;5.50;;;17.70;99.90;;;;;;10504205;28;20432;-61
2024/02/11 03:54:06;;;;;;;13.73;10.55;;;17.70;99.90;;;;;;10500633;28;20102;-60
2024/02/11 04:15:35;;;;;;;5.93;3.03;;;13.00;99.90;;;;;;10567092;27;20711;-60
2024/02/11 04:20:38;;;;;;;13.55;4.15;;;12.50;99.90;;;;;;10580818;27;20051;-58
2024/02/11 04:25:41;;;;;;;6.53;3.85;;;11.60;99.90;;;;;;10581621;27;20081;-61
2024/02/11 04:30:46;;;;;;;14.27;3.50;;;12.00;99.90;;;;;;10580723;27;20051;-60
2024/02/11 04:35:48;;;;;;;15.98;2.92;;;12.90;99.90;;;;;;10581896;27;20142;-60
2024/02/11 04:40:51;;;;;;;10.17;2.40;;;12.20;99.90;;;;;;10579453;27;20098;-60
2024/02/11 04:45:56;;;;;;;15.68;3.00;;;11.30;99.90;;;;;;10575319;27;20058;-59
2024/02/11 04:50:58;;;;;;;10.63;1.83;;;11.50;99.90;;;;;;10576548;27;20442;-62
2024/02/11 04:56:00;;;;;;;14.93;2.95;;;12.00;99.90;;;;;;10579285;27;20059;-59
2024/02/11 05:01:04;;;;;;;11.52;1.67;;;12.20;99.90;;;;;;10577985;27;20078;-59
2024/02/11 05:06:07;;;;;;;9.52;1.60;;;11.70;99.90;;;;;;10580800;27;21101;-60
2024/02/11 05:11:10;;;;;;;12.77;1.77;;;11.60;99.90;;;;;;10581935;27;20413;-59
2024/02/11 05:16:14;;;;;;;12.48;3.45;;;11.60;99.90;;;;;;10582349;27;20175;-60
2024/02/11 05:21:19;;;;;;;7.30;1.17;;;11.30;99.90;;;;;;10581395;27;20051;-60
2024/02/11 05:26:21;;;;;;;6.47;1.20;;;10.90;99.90;;;;;;10553326;27;20056;-61
2024/02/11 05:31:26;;;;;;;7.63;1.25;;;11.50;99.90;;;;;;10547971;27;20523;-59
2024/02/11 05:36:28;;;;;;;4.10;0.95;;;11.90;99.90;;;;;;10546469;27;20461;-61
2024/02/11 05:41:30;;;;;;;12.85;1.73;;;12.20;99.90;;;;;;10548954;27;20085;-59
2024/02/11 05:46:34;;;;;;;13.63;1.57;;;10.50;99.90;;;;;;10547318;27;20082;-60
2024/02/11 05:51:36;;;;;;;13.23;2.13;;;10.60;99.90;;;;;;10549040;27;20036;-62
2024/02/11 05:56:38;;;;;;;7.97;1.23;;;10.40;99.90;;;;;;10547555;27;20055;-59
2024/02/11 06:01:41;;;;;;;11.40;1.23;;;11.10;99.90;;;;;;10545043;27;20063;-60
2024/02/11 06:06:46;;;;;;;11.95;1.48;;;10.50;99.90;;;;;;10545624;27;20174;-59
2024/02/11 06:11:48;;;;;;;11.05;1.92;;;10.50;99.90;;;;;;10547736;27;20062;-61
2024/02/11 06:16:52;;;;;;;14.37;2.07;;;9.30;99.90;;;;;;10548201;27;20051;-60
2024/02/11 06:21:55;;;;;;;5.07;0.98;;;10.60;99.90;;;;;;10545362;27;21467;-59
2024/02/11 06:26:59;;;;;;;6.63;1.20;;;10.80;99.90;;;;;;10547029;27;20615;-60
2024/02/11 06:32:02;;;;;;;17.92;3.38;;;11.80;99.90;;;;;;10547814;27;20465;-60
2024/02/11 06:37:05;;;;;;;6.82;1.73;;;10.90;99.90;;;;;;10548398;27;20086;-61
2024/02/11 06:42:09;;;;;;;;;;;11.90;99.90;;;;;;10547370;27;20887;-60
2024/02/11 06:47:14;;;;;;;0.15;0.15;;;10.80;99.90;;;;;;10544556;27;19935;-61
2024/02/11 06:52:17;;;;;;;0.10;0.10;;;10.50;99.90;;;;;;10544240;27;20063;-59
2024/02/11 06:57:20;;;;;;;0.10;0.10;;;10.10;99.90;;;;;;10543903;27;20447;-61
2024/02/11 07:02:24;;;;;;;0.20;0.20;;;10.50;99.90;;;;;;10544776;27;20055;-58
2024/02/11 07:07:26;;;;;;;0.80;0.80;;;10.60;99.90;;;;;;10543678;27;20461;-62
2024/02/11 07:12:29;;;;;;;0.15;0.15;;;11.20;99.90;;;;;;10542985;27;20052;-60
2024/02/11 07:17:32;;;;;;;0.63;0.63;;;11.20;99.90;;;;;;10542699;27;20167;-62
2024/02/11 07:22:35;;;;;;;1.55;1.45;;;10.40;99.90;;;;;;10542691;27;20043;-60
2024/02/11 07:27:37;;;;;;;6.88;2.45;;;10.50;99.90;;;;;;10543354;27;20085;-60
2024/02/11 07:32:42;;;;;;;0.52;0.52;;;10.70;99.90;;;;;;10538393;27;20454;-63
2024/02/11 07:37:44;;;;;;;0.10;0.10;;;10.70;99.90;;;;;;10537365;27;20063;-61
2024/02/11 07:42:46;;;;;;;0.10;0.10;;;10.60;99.90;;;;;;10547741;27;20171;-60
2024/02/11 07:47:50;;;;;;;0.00;0.00;;;10.90;99.90;;;;;;10540187;27;20421;-61
2024/02/11 07:52:53;;;;;;;0.10;0.10;;;11.90;99.90;;;;;;10538567;27;20054;-60
2024/02/11 07:57:55;;;;;;;0.10;0.10;;;13.20;99.90;;;;;;10537936;27;20090;-61
2024/02/11 08:02:59;;;;;;;0.20;0.20;;;13.30;99.90;;;;;;10533694;27;20142;-61
2024/02/11 08:08:02;;;;;;;0.10;0.10;;;13.40;99.90;;;;;;10533533;27;20055;-61
2024/02/11 08:13:07;;;;;;;0.43;0.43;;;14.30;99.90;;;;;;10535412;28;20051;-62
2024/02/11 08:18:12;;;;;;;0.10;0.10;;;14.30;99.90;;;;;;10535172;28;20048;-61
2024/02/11 08:23:14;;;;;;;0.50;0.50;;;14.90;99.90;;;;;;10535848;28;20047;-61
2024/02/11 08:28:17;;;;;;;0.00;0.00;;;15.30;99.90;;;;;;10541091;28;20059;-60
2024/02/11 08:33:24;;;;;;;0.00;0.00;;;15.20;99.90;;;;;;10536763;28;20144;-61
2024/02/11 08:38:26;;;;;;;0.10;0.10;;;15.60;99.90;;;;;;10540366;28;20044;-61
2024/02/11 08:43:29;;;;;;;0.00;0.00;;;13.50;99.90;;;;;;10527872;28;20120;-63
2024/02/11 08:48:36;;;;;;;;;;;14.00;99.90;;;;;;10535114;28;20063;-61
2024/02/11 08:53:39;;;;;;;0.10;0.10;;;13.00;99.90;;;;;;10530609;28;19919;-61
2024/02/11 08:58:41;;;;;;;0.03;0.03;;;12.10;99.90;;;;;;10533400;27;20055;-62
2024/02/11 09:03:46;;;;;;;0.65;0.65;;;12.60;99.90;;;;;;10538558;27;20071;-62
2024/02/11 09:08:48;;;;;;;0.10;0.10;;;11.20;99.90;;;;;;10539994;27;20048;-61
2024/02/11 09:13:50;;;;;;;1.33;0.90;;;11.10;99.90;;;;;;10544482;27;20093;-60
2024/02/11 09:18:53;;;;;;;0.88;0.80;;;10.30;99.90;;;;;;10535718;27;20048;-62
2024/02/11 09:23:55;;;;;;;0.10;0.10;;;10.70;99.90;;;;;;10543506;27;20131;-61
2024/02/11 09:28:58;;;;;;;0.10;0.10;;;11.80;99.90;;;;;;10540278;27;20080;-62
2024/02/11 09:34:01;;;;;;;0.10;0.10;;;11.40;99.90;;;;;;10541442;27;20139;-62
2024/02/11 09:39:03;;;;;;;0.10;0.10;;;12.40;99.90;;;;;;10535642;27;20492;-62
2024/02/11 09:44:06;;;;;;;0.10;0.10;;;12.20;99.90;;;;;;10546110;27;20511;-61
2024/02/11 09:49:16;;;;;;;0.32;0.32;;;12.20;99.90;;;;;;10539831;27;20047;-60
2024/02/11 09:54:22;;;;;;;0.13;0.13;;;12.00;99.90;;;;;;10541871;27;20062;-60
2024/02/11 09:59:26;;;;;;;0.10;0.10;;;13.40;99.90;;;;;;10543698;27;20142;-61
2024/02/11 10:04:31;;;;;;;0.30;0.30;;;12.70;99.90;;;;;;10544381;27;20722;-61
2024/02/11 10:09:33;;;;;;;0.85;0.85;;;13.40;99.90;;;;;;10542328;27;20128;-61
2024/02/11 10:14:36;;;;;;;0.10;0.10;;;13.90;99.90;;;;;;10540075;27;20082;-61
2024/02/11 10:19:42;;;;;;;0.17;0.17;;;14.40;99.90;;;;;;10539311;27;20043;-61
2024/02/11 10:24:45;;;;;;;0.13;0.13;;;15.30;99.90;;;;;;10539694;27;20126;-60
2024/02/11 10:29:47;;;;;;;1.38;1.00;;;12.90;99.90;;;;;;10542549;27;20067;-61
2024/02/11 10:34:51;;;;;;;0.00;0.00;;;13.40;99.90;;;;;;10538710;27;20071;-61
2024/02/11 10:39:54;;;;;;;0.20;0.20;;;14.50;99.90;;;;;;10537840;27;20077;-59
2024/02/11 10:44:58;;;;;;;0.47;0.47;;;13.30;99.90;;;;;;10539057;27;20761;-59
2024/02/11 10:50:01;;;;;;;0.20;0.20;;;13.80;99.90;;;;;;10532685;27;20047;-63
2024/02/11 10:55:07;;;;;;;0.10;0.10;;;15.10;99.90;;;;;;10541191;27;20052;-60
2024/02/11 11:00:11;;;;;;;0.20;0.20;;;15.40;99.90;;;;;;10539012;27;20054;-60
2024/02/11 11:05:19;;;;;;;0.03;0.03;;;15.30;99.90;;;;;;10538699;27;20052;-61
2024/02/11 11:10:22;;;;;;;0.10;0.10;;;15.80;99.90;;;;;;10538369;27;20054;-62
2024/02/11 11:15:24;;;;;;;0.10;0.10;;;14.80;99.90;;;;;;10537632;27;20044;-61
2024/02/11 11:20:29;;;;;;;0.20;0.20;;;15.40;99.90;;;;;;10536442;27;20077;-61
2024/02/11 11:25:32;;;;;;;0.10;0.10;;;15.50;99.90;;;;;;10529738;27;20083;-60
2024/02/11 11:30:34;;;;;;;;;;;14.80;99.90;;;;;;10535039;27;20136;-58
2024/02/11 11:35:37;;;;;;;0.10;0.10;;;14.70;99.90;;;;;;10534150;27;19935;-63
2024/02/11 11:40:40;;;;;;;1.35;1.23;;;14.50;99.90;;;;;;10538692;27;20440;-62
2024/02/11 11:45:54;;;;;;;5.32;2.55;;;14.40;99.90;;;;;;10539493;27;20115;-60
2024/02/11 11:50:59;;;;;;;0.10;0.10;;;15.70;99.90;;;;;;10539663;27;20093;-62
2024/02/11 11:56:02;;;;;;;0.10;0.10;;;15.50;99.90;;;;;;10540073;27;20130;-62
2024/02/11 12:01:06;;;;;;;0.63;0.63;;;15.60;99.90;;;;;;10538094;27;20922;-61
2024/02/11 12:06:11;;;;;;;0.10;0.10;;;15.50;99.90;;;;;;10537008;27;20193;-62
2024/02/11 12:11:14;;;;;;;0.20;0.20;;;15.90;99.90;;;;;;10529182;27;20051;-61
2024/02/11 12:16:18;;;;;;;0.57;0.57;;;15.60;99.90;;;;;;10537423;28;20047;-61
2024/02/11 12:21:23;;;;;;;0.25;0.25;;;15.30;99.90;;;;;;10539406;28;20075;-61
2024/02/11 12:26:25;;;;;;;0.25;0.25;;;15.70;99.90;;;;;;10537200;28;20058;-61
2024/02/11 12:31:27;;;;;;;1.30;1.03;;;15.70;99.90;;;;;;10539553;28;20069;-61
2024/02/11 12:36:31;;;;;;;0.00;0.00;;;16.00;99.90;;;;;;10546100;27;20048;-60
2024/02/11 12:41:36;;;;;;;0.10;0.10;;;14.70;99.90;;;;;;10546076;27;20082;-61
2024/02/11 12:46:38;;;;;;;2.13;1.33;;;14.40;99.90;;;;;;10549309;27;20589;-61
2024/02/11 12:51:42;;;;;;;0.83;0.47;;;14.30;99.90;;;;;;10548583;27;20059;-61
2024/02/11 12:56:45;;;;;;;0.38;0.38;;;14.60;99.90;;;;;;10553540;27;20067;-57
2024/02/11 13:01:46;;;;;;;0.10;0.10;;;13.90;99.90;;;;;;10544325;27;20138;-62
2024/02/11 13:06:50;;;;;;;0.20;0.20;;;13.00;99.90;;;;;;10543048;27;20166;-63
2024/02/11 13:11:52;;;;;;;0.40;0.40;;;14.30;99.90;;;;;;10548353;27;20918;-59
2024/02/11 13:16:55;;;;;;;0.23;0.23;;;14.30;99.90;;;;;;10549738;27;20299;-61
2024/02/11 13:21:59;;;;;;;;;;;13.90;99.90;;;;;;10548313;27;20429;-61
2024/02/11 13:27:01;;;;;;;1.55;1.35;;;13.30;99.90;;;;;;10548029;27;20710;-60
2024/02/11 13:32:04;;;;;;;0.10;0.10;;;12.90;99.90;;;;;;10546223;27;20052;-62
2024/02/11 13:37:07;;;;;;;1.27;0.35;;;13.20;99.90;;;;;;10545251;27;20056;-60
2024/02/11 13:42:09;;;;;;;0.70;0.70;;;12.90;99.90;;;;;;10544520;27;20169;-61
2024/02/11 13:47:11;;;;;;;0.47;0.47;;;12.90;99.90;;;;;;10545220;27;20789;-62
2024/02/11 13:52:15;;;;;;;20.85;8.20;;;13.60;99.90;;;;;;10543977;27;20056;-61
2024/02/11 13:57:18;;;;;;;18.23;7.30;;;14.70;99.90;;;;;;10542909;27;20233;-62
2024/02/11 14:02:20;;;;;;;16.35;7.22;;;14.10;99.90;;;;;;10536663;27;20056;-61
2024/02/11 14:07:24;;;;;;;12.17;4.40;;;14.40;99.90;;;;;;10540459;27;21419;-60
2024/02/11 14:12:26;;;;;;;1.08;0.93;;;15.00;99.90;;;;;;10541007;27;21289;-61
2024/02/11 14:17:29;;;;;;;0.17;0.17;;;15.30;99.90;;;;;;10541333;27;20073;-62
2024/02/11 14:22:33;;;;;;;0.10;0.10;;;15.00;99.90;;;;;;10543125;27;20075;-61
2024/02/11 14:27:35;;;;;;;0.10;0.10;;;15.30;99.90;;;;;;10538973;27;20400;-61
2024/02/11 14:32:37;;;;;;;0.40;0.40;;;14.50;99.90;;;;;;10545924;27;20483;-61
2024/02/11 14:37:42;;;;;;;0.30;0.30;;;13.90;99.90;;;;;;10543051;27;20067;-61
2024/02/11 14:42:45;;;;;;;0.40;0.40;;;14.20;99.90;;;;;;10543349;27;20188;-61
2024/02/11 14:47:47;;;;;;;;;;;13.70;99.90;;;;;;10541519;27;20051;-61
2024/02/11 14:52:50;;;;;;;0.20;0.20;;;14.90;99.90;;;;;;10538446;27;20767;-59
2024/02/11 14:57:53;;;;;;;0.75;0.75;;;15.70;99.90;;;;;;10538742;27;20143;-59
2024/02/11 15:02:55;;;;;;;0.30;0.30;;;14.70;99.90;;;;;;10539258;27;21083;-59
2024/02/11 15:07:59;;;;;;;0.10;0.10;;;14.80;99.90;;;;;;10535820;27;20052;-59
2024/02/11 15:13:02;;;;;;;0.82;0.82;;;15.70;99.90;;;;;;10535142;27;20090;-60
2024/02/11 15:18:05;;;;;;;0.15;0.15;;;14.70;99.90;;;;;;10536897;27;20138;-58
2024/02/11 15:23:08;;;;;;;0.10;0.10;;;15.20;99.90;;;;;;10536440;27;20054;-61
2024/02/11 15:28:10;;;;;;;0.40;0.40;;;14.00;99.90;;;;;;10539820;27;20404;-58
2024/02/11 15:33:12;;;;;;;0.27;0.27;;;15.30;99.90;;;;;;10538757;27;20066;-60
2024/02/11 15:38:16;;;;;;;2.43;1.40;;;15.50;99.90;;;;;;10535052;27;20457;-59
2024/02/11 15:43:18;;;;;;;0.10;0.10;;;14.40;99.90;;;;;;10537627;27;20604;-60
2024/02/11 15:48:20;;;;;;;0.10;0.10;;;14.80;99.90;;;;;;10534795;27;20139;-59
2024/02/11 15:53:25;;;;;;;0.10;0.10;;;14.50;99.90;;;;;;10536033;27;20162;-57
2024/02/11 15:58:27;;;;;;;1.65;0.90;;;14.90;99.90;;;;;;10541910;27;20048;-58
2024/02/11 16:03:29;;;;;;;0.68;0.68;;;14.10;99.90;;;;;;10541374;27;20054;-57
2024/02/11 16:08:36;;;;;;;0.20;0.20;;;13.30;99.90;;;;;;10537664;27;20059;-59
2024/02/11 16:13:40;;;;;;;0.30;0.30;;;13.50;99.90;;;;;;10535764;27;20059;-58
2024/02/11 16:18:43;;;;;;;0.10;0.10;;;13.80;99.90;;;;;;10535537;28;20094;-58
2024/02/11 16:23:47;;;;;;;2.25;1.67;;;12.60;99.90;;;;;;10536934;28;20100;-58
2024/02/11 16:28:49;;;;;;;0.30;0.25;;;11.90;99.90;;;;;;10536005;28;20064;-57
2024/02/11 16:33:51;;;;;;;0.10;0.10;;;12.90;99.90;;;;;;10536176;28;20056;-59
2024/02/11 16:38:55;;;;;;;0.20;0.20;;;13.40;99.90;;;;;;10534607;28;20050;-60
2024/02/11 16:43:58;;;;;;;0.20;0.20;;;15.00;99.90;;;;;;10534148;28;20791;-60
2024/02/11 16:49:01;;;;;;;0.20;0.20;;;15.60;99.90;;;;;;10533486;28;20059;-59
2024/02/11 16:54:05;;;;;;;;;;;16.30;99.90;;;;;;10535344;28;21506;-57
2024/02/11 16:59:09;;;;;;;0.60;0.40;;;16.20;99.90;;;;;;10531056;28;19924;-58
2024/02/11 17:04:13;;;;;;;0.10;0.10;;;16.90;99.90;;;;;;10529613;28;20066;-58
2024/02/11 17:09:17;;;;;;;0.00;0.00;;;17.20;99.90;;;;;;10535944;28;20048;-58
2024/02/11 17:14:19;;;;;;;0.40;0.40;;;17.30;99.90;;;;;;10529605;28;20044;-58
2024/02/11 17:19:21;;;;;;;0.30;0.30;;;15.00;99.90;;;;;;10535929;27;20665;-57
2024/02/11 17:24:24;;;;;;;0.03;0.03;;;15.60;99.90;;;;;;10540829;27;20040;-59
2024/02/11 17:29:26;;;;;;;0.20;0.20;;;16.70;99.90;;;;;;10540157;27;20783;-59
2024/02/11 17:34:29;;;;;;;0.00;0.00;;;17.10;99.90;;;;;;10534007;27;20147;-59
2024/02/11 17:39:32;;;;;;;0.00;0.00;;;17.20;99.90;;;;;;10541674;27;20070;-60
2024/02/11 17:44:37;;;;;;;0.80;0.80;;;17.40;99.90;;;;;;10535305;27;20067;-61
2024/02/11 17:49:39;;;;;;;0.55;0.40;;;17.00;99.90;;;;;;10542245;27;20561;-62
2024/02/11 17:54:43;;;;;;;0.20;0.20;;;17.20;99.90;;;;;;10545528;27;20043;-60
2024/02/11 17:59:45;;;;;;;1.08;0.68;;;17.40;99.90;;;;;;10541441;27;20050;-61
2024/02/11 18:04:48;;;;;;;0.15;0.15;;;16.80;99.90;;;;;;10541086;27;20048;-62
2024/02/11 18:09:52;;;;;;;0.45;0.45;;;16.40;99.90;;;;;;10546391;27;20534;-61
2024/02/11 18:14:56;;;;;;;0.13;0.13;;;14.80;99.90;;;;;;10551592;27;20144;-59
2024/02/11 18:19:59;;;;;;;0.30;0.30;;;12.60;99.90;;;;;;10548177;27;20478;-61
2024/02/11 18:25:02;;;;;;;0.60;0.60;;;12.40;99.90;;;;;;10533964;27;20047;-60
2024/02/11 18:30:07;;;;;;;0.40;0.40;;;13.10;99.90;;;;;;10542641;27;20051;-60
2024/02/11 18:35:10;;;;;;;0.17;0.17;;;12.10;99.90;;;;;;10548306;27;20050;-57
2024/02/11 18:40:15;;;;;;;0.35;0.35;;;12.30;99.90;;;;;;10538528;27;20974;-61
2024/02/11 18:45:18;;;;;;;0.98;0.93;;;11.60;99.90;;;;;;10533063;27;20117;-61
2024/02/11 18:50:21;;;;;;;0.10;0.10;;;12.30;99.90;;;;;;10540581;27;20511;-61
2024/02/11 18:55:24;;;;;;;;;;;12.10;99.90;;;;;;10541746;27;20062;-59
2024/02/11 19:00:26;;;;;;;0.45;0.45;;;12.90;99.90;;;;;;10541350;27;19923;-61
2024/02/11 19:05:28;;;;;;;0.35;0.35;;;11.70;99.90;;;;;;10540912;27;20055;-60
2024/02/11 19:10:34;;;;;;;0.10;0.10;;;12.00;99.90;;;;;;10545429;27;20098;-61
2024/02/11 19:15:36;;;;;;;0.40;0.40;;;11.60;99.90;;;;;;10543108;27;20035;-61
2024/02/11 19:20:38;;;;;;;1.15;1.05;;;11.50;99.90;;;;;;10544029;27;20592;-60
2024/02/11 19:25:42;;;;;;;0.10;0.10;;;13.60;99.90;;;;;;10541590;27;20047;-61
2024/02/11 19:30:44;;;;;;;6.57;1.48;;;15.40;99.90;;;;;;10541018;27;20090;-62
2024/02/11 19:35:46;;;;;;;0.00;0.00;;;16.20;99.90;;;;;;10541734;27;20036;-61
2024/02/11 19:40:50;;;;;;;0.00;0.00;;;16.50;99.90;;;;;;10540362;27;20050;-62
2024/02/11 19:45:52;;;;;;;0.20;0.20;;;16.70;99.90;;;;;;10538630;27;20043;-62
2024/02/11 19:50:54;;;;;;;1.60;0.77;;;16.50;99.90;;;;;;10539740;27;20047;-61
2024/02/11 19:55:57;;;;;;;0.00;0.00;;;15.70;99.90;;;;;;10544430;27;20051;-60
2024/02/11 20:01:03;;;;;;;0.10;0.10;;;16.40;99.90;;;;;;10545321;27;20078;-62
2024/02/11 20:06:09;;;;;;;0.65;0.65;;;16.70;99.90;;;;;;10537459;27;20051;-60
2024/02/11 20:11:13;;;;;;;0.32;0.32;;;15.90;99.90;;;;;;10538321;27;20056;-61
2024/02/11 20:16:15;;;;;;;0.10;0.10;;;16.80;99.90;;;;;;10536156;28;20031;-61
2024/02/11 20:21:18;;;;;;;0.20;0.20;;;15.80;99.90;;;;;;10537497;28;20434;-62
2024/02/11 20:26:21;;;;;;;0.10;0.10;;;15.50;99.90;;;;;;10535941;28;20106;-61
2024/02/11 20:31:24;;;;;;;0.10;0.10;;;15.70;99.90;;;;;;10538339;28;20062;-60
2024/02/11 20:36:26;;;;;;;0.10;0.10;;;14.70;99.90;;;;;;10533350;28;20054;-60
2024/02/11 20:41:29;;;;;;;1.63;1.10;;;13.70;99.90;;;;;;10527666;28;20058;-62
2024/02/11 20:46:31;;;;;;;1.58;1.48;;;13.40;99.90;;;;;;10530995;28;20135;-61
2024/02/11 20:51:33;;;;;;;0.03;0.03;;;13.00;99.90;;;;;;10531979;28;20054;-63
2024/02/11 20:56:38;;;;;;;0.20;0.20;;;12.40;99.90;;;;;;10537610;27;20051;-60
2024/02/11 21:01:40;;;;;;;0.10;0.10;;;12.40;99.90;;;;;;10541620;27;20043;-61
2024/02/11 21:06:44;;;;;;;0.30;0.30;;;13.90;99.90;;;;;;10541885;27;20557;-61
2024/02/11 21:11:47;;;;;;;0.25;0.25;;;14.80;99.90;;;;;;10540536;27;20062;-61
2024/02/11 21:16:50;;;;;;;0.10;0.10;;;15.20;99.90;;;;;;10540065;27;21085;-61
2024/02/11 21:21:52;;;;;;;0.00;0.00;;;13.90;99.90;;;;;;10543953;27;20079;-60
2024/02/11 21:26:57;;;;;;;0.10;0.10;;;13.70;99.90;;;;;;10538804;27;20779;-61
2024/02/11 21:32:01;;;;;;;5.63;1.73;;;12.90;99.90;;;;;;10540216;27;20469;-61
2024/02/11 21:37:03;;;;;;;0.65;0.65;;;12.90;99.90;;;;;;10542347;27;20079;-61
2024/02/11 21:42:08;;;;;;;0.10;0.10;;;14.00;99.90;;;;;;10541430;27;20052;-61
2024/02/11 21:47:10;;;;;;;0.30;0.30;;;14.10;99.90;;;;;;10541380;27;20135;-61
2024/02/11 21:52:13;;;;;;;0.20;0.20;;;14.80;99.90;;;;;;10546803;27;20269;-61
2024/02/11 21:57:17;;;;;;;2.25;0.80;;;13.90;99.90;;;;;;10544339;27;20780;-61
2024/02/11 22:02:19;;;;;;;0.65;0.65;;;12.60;99.90;;;;;;10546870;27;20054;-61
2024/02/11 22:07:21;;;;;;;0.43;0.43;;;12.40;99.90;;;;;;10546055;27;20044;-61
2024/02/11 22:12:25;;;;;;;0.32;0.32;;;12.40;99.90;;;;;;10547430;27;20155;-63
2024/02/11 22:17:29;;;;;;;0.15;0.15;;;13.00;99.90;;;;;;10544576;27;20052;-62
2024/02/11 22:22:31;;;;;;;17.05;7.70;;;13.50;99.90;;;;;;10554439;27;20115;-60
2024/02/11 22:27:34;;;;;;;19.90;7.87;;;13.10;99.90;;;;;;10551510;27;20082;-61
2024/02/11 22:32:37;;;;;;;15.48;7.40;;;13.20;99.90;;;;;;10550514;27;20140;-62
2024/02/11 22:37:39;;;;;;;;;;;13.50;99.90;;;;;;10545739;27;20494;-62
2024/02/11 22:42:43;;;;;;;16.15;7.20;;;13.80;99.90;;;;;;10535576;27;19924;-61
2024/02/11 22:47:45;;;;;;;21.63;7.53;;;15.20;99.90;;;;;;10534601;27;20167;-61
2024/02/11 22:52:47;;;;;;;15.32;6.68;;;15.40;99.90;;;;;;10544530;27;20051;-61
2024/02/11 22:57:51;;;;;;;14.63;7.40;;;15.50;99.90;;;;;;10543157;27;20105;-61
2024/02/11 23:02:55;;;;;;;16.33;7.32;;;15.40;99.90;;;;;;10544702;27;20192;-61
2024/02/11 23:07:57;;;;;;;24.90;9.80;;;15.20;99.90;;;;;;10543957;27;20989;-61
2024/02/11 23:13:01;;;;;;;15.90;7.23;;;14.80;99.90;;;;;;10548489;27;20071;-61
2024/02/11 23:18:03;;;;;;;14.68;7.63;;;14.80;99.90;;;;;;10546886;27;20806;-62
2024/02/11 23:23:06;;;;;;;21.55;8.00;;;15.60;99.90;;;;;;10542307;27;20054;-62
2024/02/11 23:28:12;;;;;;;16.38;8.00;;;15.10;99.90;;;;;;10542578;27;20055;-61
2024/02/11 23:33:14;;;;;;;16.02;7.75;;;15.70;99.90;;;;;;10544244;27;20056;-62
2024/02/11 23:38:18;;;;;;;22.88;9.63;;;15.80;99.90;;;;;;10535362;27;20118;-62
2024/02/11 23:43:23;;;;;;;18.52;8.02;;;16.00;99.90;;;;;;10542389;27;20202;-62
2024/02/11 23:48:25;;;;;;;19.20;9.25;;;15.40;99.90;;;;;;10539528;27;20743;-64
2024/02/11 23:53:27;;;;;;;15.83;8.17;;;14.80;99.90;;;;;;10539938;27;20056;-62
2024/02/11 23:58:32;;;;;;;;;;;15.30;99.90;;;;;;10542788;27;20868;-61
